Aviation Digital Data Service (ADDS)

Output produced by METARs form (0700 UTC 30 July 2014)
found at http://www.aviationweather.gov/adds/metars/
 
KDUJ 300656Z AUTO 00000KT 10SM CLR 12/09 A3002 RMK AO2 SLP164 T01170094
KDUJ 300556Z AUTO 00000KT 10SM CLR 11/09 A3003 RMK AO2 SLP168 T01060089 10150 20106 58001
KDUJ 300456Z AUTO 22003KT 10SM CLR 12/11 A3003 RMK AO2 SLP167 T01220106 401890111
KDUJ 300356Z AUTO 22003KT 10SM CLR 12/11 A3003 RMK AO2 SLP167 T01220106
KDUJ 300256Z AUTO 00000KT 10SM CLR 13/11 A3003 RMK AO2 SLP168 T01280111 50005
KDUJ 300156Z AUTO 25003KT 10SM CLR 12/11 A3004 RMK AO2 SLP169 T01220106
KDUJ 300056Z AUTO 23003KT 10SM CLR 13/11 A3002 RMK AO2 SLP165 T01280111
KDUJ 292356Z AUTO 23003KT 10SM CLR 15/12 A3002 RMK AO2 SLP162 T01500117 10189 20150 51008
KDUJ 292256Z AUTO 25005KT 10SM OVC070 17/11 A3001 RMK AO2 SLP160 T01670111
KDUJ 292156Z AUTO 26007KT 10SM BKN075 18/11 A3000 RMK AO2 SLP155 T01780111
KDUJ 292056Z AUTO 26006KT 10SM SCT033 BKN040 OVC070 17/11 A2999 RMK AO2 SLP153 T01670111 53002
KDUJ 291956Z AUTO 30006KT 10SM FEW029 OVC070 18/11 A2999 RMK AO2 SLP150 T01830106
KDUJ 291856Z AUTO 31009KT 10SM BKN038 OVC065 17/09 A2999 RMK AO2 SLP150 T01720094
KDUJ 291756Z AUTO 26004KT 10SM SCT042 OVC050 16/10 A2998 RMK AO2 SLP151 T01610100 10172 20122 57003
KDUJ 291656Z AUTO 29007KT 10SM FEW021 SCT047 OVC055 17/10 A2998 RMK AO2 SLP150 T01720100
KDUJ 291640Z AUTO VRB06KT 10SM SCT021 BKN042 OVC050 16/10 A2999 RMK AO2 T01610100
KDUJ 291630Z AUTO 27006KT 10SM BKN019 OVC050 16/11 A2999 RMK AO2 T01610111
KDUJ 291556Z AUTO 29004KT 10SM SCT017 SCT026 OVC050 16/11 A2999 RMK AO2 SLP153 T01610111
KDUJ 291553Z AUTO 28006KT 10SM SCT017 BKN026 OVC050 16/12 A2999 RMK AO2
KDUJ 291538Z AUTO 29005KT 10SM FEW014 SCT021 OVC050 16/12 A3000 RMK AO2 T01560117
KDUJ 291529Z AUTO 29004KT 10SM SCT014 BKN022 OVC050 16/12 A3000 RMK AO2 T01610117
KDUJ 291456Z AUTO 28005KT 10SM OVC014 14/11 A2999 RMK AO2 SLP153 T01440111 51011
KDUJ 291412Z AUTO 24005KT 10SM OVC010 14/11 A2999 RMK AO2 CIG 007V013 T01390111
KDUJ 291356Z AUTO 26004KT 10SM OVC008 14/11 A2998 RMK AO2 CIG 007V011 SLP149 T01390111
KDUJ 291256Z AUTO 25004KT 10SM OVC005 12/11 A2997 RMK AO2 SLP147 T01220106
KDUJ 291234Z AUTO 23007KT 10SM BKN005 OVC045 12/11 A2996 RMK AO2 T01220106
KDUJ 291209Z AUTO 27006KT 10SM SCT004 OVC045 12/11 A2996 RMK AO2 T01220106
KDUJ 291156Z AUTO 27005KT 9SM BKN004 OVC044 12/11 A2996 RMK AO2 SLP141 70005 T01220106 10122 20111 53015
KDUJ 291056Z AUTO 23005KT 5SM BR OVC004 12/11 A2994 RMK AO2 SLP136 T01170106
KDUJ 291038Z AUTO 26004KT 6SM BR OVC004 12/11 A2993 RMK AO2 T01170106
KDUJ 290956Z AUTO 27004KT 10SM BKN005 OVC023 12/10 A2992 RMK AO2 SLP130 T01170100
KDUJ 290856Z AUTO 28005KT 10SM OVC005 12/10 A2991 RMK AO2 SLP124 T01170100 53002
KDUJ 290756Z AUTO 28007KT 10SM OVC005 12/11 A2990 RMK AO2 SLP121 T01170106
KDUJ 290656Z AUTO 27005KT 10SM OVC006 12/11 A2990 RMK AO2 SLP120 T01220106
KDUJ 290556Z AUTO 28005KT 10SM BKN007 OVC017 12/11 A2991 RMK AO2 SLP120 T01220106 10150 20122 58000
KDUJ 290522Z AUTO 28005KT 10SM BKN008 OVC012 12/11 A2991 RMK AO2 CIG 006V010 T01220106
KDUJ 290456Z AUTO 27007KT 10SM OVC013 12/11 A2990 RMK AO2 SLP120 T01220106 402110122
KDUJ 290414Z AUTO 27008KT 10SM OVC009 13/11 A2991 RMK AO2 CIG 006V011 T01280111
KDUJ 290356Z AUTO 27007KT 10SM OVC010 13/11 A2991 RMK AO2 SLP121 T01280111
KDUJ 290256Z AUTO 29008KT 10SM OVC012 13/12 A2991 RMK AO2 SLP122 T01330117 53012
KDUJ 290156Z AUTO 29011KT 10SM BKN012 OVC017 14/12 A2990 RMK AO2 SLP118 T01440122
KDUJ 290154Z AUTO 30012KT 10SM SCT009 OVC014 14/12 A2990 RMK AO2
KDUJ 290147Z AUTO 30011KT 10SM BKN011 OVC016 14/13 A2990 RMK AO2 T01440128
KDUJ 290131Z AUTO 29011KT 10SM BKN008 OVC016 15/13 A2989 RMK AO2 CIG 006V012 T01500133
KDUJ 290118Z AUTO 29008KT 10SM SCT008 BKN017 OVC043 15/13 A2988 RMK AO2 T01500133
KDUJ 290108Z AUTO 29006KT 10SM BKN017 BKN028 OVC043 15/13 A2988 RMK AO2 T01500133
KDUJ 290056Z AUTO 29004KT 10SM FEW015 BKN034 OVC043 15/13 A2988 RMK AO2 SLP110 T01500133
KDUJ 282356Z AUTO 31005KT 10SM OVC035 15/13 A2987 RMK AO2 RAB15E32 SLP108 P0001 60005 T01500133 10206 20150 53021
KDUJ 282337Z AUTO 32008G17KT 6SM BR FEW007 SCT017 OVC036 15/13 A2986 RMK AO2 RAB15E32 P0001 T01500128
KDUJ 282327Z AUTO 33010G20KT 4SM -RA BR FEW008 BKN017 OVC034 16/13 A2986 RMK AO2 RAB15 P0001 T01560133
KDUJ 282308Z AUTO 30008KT 7SM SCT018 BKN026 OVC043 16/13 A2985 RMK AO2 T01610133
KDUJ 282256Z AUTO 31007KT 10SM FEW020 SCT028 OVC044 17/13 A2984 RMK AO2 SLP099 T01670133
KDUJ 282237Z AUTO 31010G17KT 10SM FEW020 BKN037 OVC046 17/13 A2984 RMK AO2 T01670133
KDUJ 282217Z AUTO 31008KT 10SM FEW012 BKN028 OVC095 17/14 A2983 RMK AO2 T01670139
KDUJ 282156Z AUTO 33008KT 10SM FEW012 BKN033 OVC095 17/14 A2982 RMK AO2 SLP092 T01720144
KDUJ 282146Z AUTO 31010KT 10SM SCT014 BKN033 OVC095 17/14 A2982 RMK AO2 T01670144
KDUJ 282127Z AUTO 31010G17KT 5SM BR BKN014 OVC022 16/14 A2982 RMK AO2 T01610144
KDUJ 282056Z AUTO 32010G19KT 10SM OVC022 18/13 A2980 RMK AO2 SLP084 60004 T01780128 53036
KDUJ 282004Z AUTO 33016G22KT 10SM BKN022 BKN029 19/14 A2976 RMK AO2 T01890139
KDUJ 281956Z AUTO 33013G21KT 10SM SCT022 BKN030 BKN034 19/14 A2976 RMK AO2 SLP067 T01940139
KDUJ 281918Z AUTO 33009G21KT 10SM FEW013 BKN019 OVC110 19/16 A2973 RMK AO2 T01940156
KDUJ 281904Z AUTO 33008G19KT 10SM BKN013 BKN026 OVC070 19/16 A2973 RMK AO2 T01890161